Time;durP1;ratioP1;P1;durP2;ratioP2;P2;SDS_P1;SDS_P2;PMS_P1;PMS_P2;Temp;Humidity;BMP_temperature;BMP_pressure;BME280_temperature;BME280_humidity;BME280_pressure;Samples;Min_cycle;Max_cycle;Signal;HPM_P1;HPM_P2
2023/12/06 00:02:25;;;;;;;11.38;7.78;;;;;;;9.72;71.75;100779.00;5048684;28;20691;-78
2023/12/06 00:04:51;;;;;;;22.45;8.27;;;;;;;9.65;71.97;100781.31;5048719;28;20029;-78
2023/12/06 00:07:16;;;;;;;16.15;9.77;;;;;;;9.68;72.11;100769.47;5048351;28;20025;-78
2023/12/06 00:09:42;;;;;;;37.60;14.15;;;;;;;9.65;71.99;100762.50;5048211;28;20025;-78
2023/12/06 00:12:08;;;;;;;24.08;11.50;;;;;;;9.64;72.47;100758.09;5048140;28;20495;-77
2023/12/06 00:14:33;;;;;;;27.38;9.43;;;;;;;9.68;72.28;100758.72;5048117;28;20116;-78
2023/12/06 00:16:59;;;;;;;11.65;7.53;;;;;;;9.68;72.48;100770.31;5047938;28;20033;-78
2023/12/06 00:19:24;;;;;;;27.73;10.00;;;;;;;9.65;72.40;100757.13;5048260;28;20021;-78
2023/12/06 00:21:50;;;;;;;20.70;9.50;;;;;;;9.66;72.19;100758.81;5047839;28;20116;-79
2023/12/06 00:24:15;;;;;;;16.08;8.15;;;;;;;9.63;72.04;100756.38;5047858;28;20028;-77
2023/12/06 00:26:43;;;;;;;15.27;9.35;;;;;;;9.71;71.95;100763.88;5048133;28;20048;-77
2023/12/06 00:29:08;;;;;;;15.43;8.43;;;;;;;9.71;71.88;100753.97;5048134;28;20028;-78
2023/12/06 00:31:34;;;;;;;14.07;8.23;;;;;;;9.66;71.98;100761.50;5048276;28;20098;-79
2023/12/06 00:33:59;;;;;;;13.07;7.78;;;;;;;9.50;71.85;100736.81;5047932;28;20465;-77
2023/12/06 00:36:25;;;;;;;12.75;7.45;;;;;;;9.53;71.81;100749.13;5046730;28;20546;-77
2023/12/06 00:38:52;;;;;;;11.45;7.32;;;;;;;9.53;71.88;100766.13;5047889;28;20033;-77
2023/12/06 00:41:17;;;;;;;30.58;9.48;;;;;;;9.44;72.18;100756.06;5048155;28;20343;-76
2023/12/06 00:43:43;;;;;;;17.00;9.48;;;;;;;9.44;72.82;100756.06;5053180;28;20036;-78
2023/12/06 00:46:08;;;;;;;13.90;7.68;;;;;;;9.16;73.35;100745.66;5068881;28;20045;-79
2023/12/06 00:48:34;;;;;;;20.42;8.77;;;;;;;9.24;73.48;100744.09;5062417;28;20120;-78
2023/12/06 00:51:01;;;;;;;12.80;6.47;;;;;;;9.24;73.43;100741.41;5052172;28;21078;-79
2023/12/06 00:53:27;;;;;;;10.57;7.03;;;;;;;9.33;73.27;100747.09;5051883;28;20047;-77
2023/12/06 00:55:53;;;;;;;14.63;8.30;;;;;;;9.37;72.96;100740.50;5051767;28;20096;-77
2023/12/06 00:58:19;;;;;;;11.00;5.90;;;;;;;9.36;73.30;100742.34;5052620;28;20067;-78
2023/12/06 01:00:44;;;;;;;12.38;6.70;;;;;;;9.39;72.73;100742.09;5051593;28;20055;-79
2023/12/06 01:03:10;;;;;;;17.20;6.93;;;;;;;9.42;73.16;100736.50;5051660;28;20033;-78
2023/12/06 01:05:35;;;;;;;11.00;6.40;;;;;;;9.29;72.24;100716.94;5051422;28;20032;-79
2023/12/06 01:08:01;;;;;;;11.82;5.80;;;;;;;9.37;72.43;100727.94;5051431;28;20028;-77
2023/12/06 01:10:26;;;;;;;6.93;5.18;;;;;;;9.39;72.53;100720.63;5051686;28;20059;-78
2023/12/06 01:12:52;;;;;;;23.23;7.03;;;;;;;9.45;72.25;100736.28;5051523;28;20439;-78
2023/12/06 01:15:17;;;;;;;7.93;5.60;;;;;;;9.47;72.32;100731.66;5048839;28;20073;-78
2023/12/06 01:17:43;;;;;;;7.47;5.43;;;;;;;9.43;71.94;100729.31;5051174;28;20099;-77
2023/12/06 01:20:08;;;;;;;15.35;5.75;;;;;;;9.31;72.12;100717.69;5051489;28;20039;-78
2023/12/06 01:22:34;;;;;;;29.15;8.75;;;;;;;9.51;71.90;100737.66;5050946;28;20091;-78
2023/12/06 01:25:00;;;;;;;14.07;6.78;;;;;;;9.50;71.86;100727.91;5051286;28;20126;-77
2023/12/06 01:27:25;;;;;;;10.80;6.45;;;;;;;9.53;71.77;100717.78;5049978;28;20029;-80
2023/12/06 01:29:51;;;;;;;16.55;6.07;;;;;;;9.55;71.67;100718.50;5051452;28;20033;-78
2023/12/06 01:32:16;;;;;;;9.05;6.35;;;;;;;9.46;71.63;100686.13;5052639;28;20028;-78
2023/12/06 01:34:42;;;;;;;28.75;7.57;;;;;;;9.65;71.30;100716.84;5054117;28;20048;-79
2023/12/06 01:37:07;;;;;;;36.58;8.52;;;;;;;9.58;71.18;100707.53;5063592;28;20778;-78
2023/12/06 01:39:33;;;;;;;21.25;8.18;;;;;;;9.54;71.32;100703.38;5059214;28;20031;-78
2023/12/06 01:41:59;;;;;;;15.65;7.70;;;;;;;9.53;71.19;100703.50;5050952;28;20533;-77
2023/12/06 01:44:24;;;;;;;14.10;8.15;;;;;;;9.36;71.72;100698.56;5050587;28;20032;-78
2023/12/06 01:46:50;;;;;;;17.92;7.88;;;;;;;9.38;72.00;100702.84;5048343;28;20148;-78
2023/12/06 01:49:16;;;;;;;36.10;9.73;;;;;;;9.34;71.97;100690.59;5050543;28;20035;-77
2023/12/06 01:51:41;;;;;;;12.32;7.60;;;;;;;9.35;72.33;100692.31;5050875;28;20094;-78
2023/12/06 01:54:08;;;;;;;18.33;8.20;;;;;;;9.32;72.73;100691.69;5050709;28;20123;-78
2023/12/06 01:56:36;;;;;;;19.80;9.90;;;;;;;9.29;72.57;100693.63;5049797;28;20028;-78
2023/12/06 01:59:01;;;;;;;19.67;9.75;;;;;;;9.21;72.71;100684.44;5051028;28;20112;-78
2023/12/06 02:01:27;;;;;;;16.67;10.23;;;;;;;9.24;73.22;100681.53;5050543;28;20033;-79
2023/12/06 02:03:53;;;;;;;17.23;10.80;;;;;;;9.22;73.57;100670.06;5050658;28;20060;-77
2023/12/06 02:06:19;;;;;;;23.17;11.02;;;;;;;9.18;72.97;100673.94;5050045;28;20029;-77
2023/12/06 02:08:46;;;;;;;20.33;9.57;;;;;;;9.17;73.11;100677.59;5050480;28;20040;-77
2023/12/06 02:11:12;;;;;;;18.42;10.43;;;;;;;9.18;73.40;100671.25;5050499;28;20100;-78
2023/12/06 02:13:37;;;;;;;16.48;9.30;;;;;;;9.06;73.45;100661.44;5050451;28;20108;-78
2023/12/06 02:16:04;;;;;;;15.95;9.90;;;;;;;9.16;73.63;100671.38;5050541;28;20025;-77
2023/12/06 02:18:30;;;;;;;17.90;10.57;;;;;;;9.18;73.94;100679.31;5050375;28;20052;-77
2023/12/06 02:20:58;;;;;;;30.05;10.63;;;;;;;9.18;73.74;100681.97;5050598;28;20025;-77
2023/12/06 02:23:31;;;;;;;24.90;9.90;;;;;;;9.08;74.08;100659.50;5050306;28;20032;-78
2023/12/06 02:25:56;;;;;;;18.20;9.65;;;;;;;9.19;73.76;100671.16;5054471;28;20045;-78
2023/12/06 02:28:23;;;;;;;28.10;11.23;;;;;;;9.24;73.77;100677.00;5062843;28;20101;-78
2023/12/06 02:30:48;;;;;;;23.65;10.82;;;;;;;9.29;74.02;100671.31;5058675;28;20017;-78
2023/12/06 02:33:14;;;;;;;31.75;11.75;;;;;;;9.27;73.46;100663.38;5049759;28;20075;-78
2023/12/06 02:35:48;;;;;;;21.02;9.32;;;;;;;9.24;73.66;100652.88;5049821;28;20511;-78
2023/12/06 02:38:16;;;;;;;15.88;7.28;;;;;;;9.36;73.65;100659.13;5047586;28;20037;-78
2023/12/06 02:40:45;;;;;;;18.67;8.55;;;;;;;9.33;74.10;100651.31;5049823;28;20048;-78
2023/12/06 02:43:13;;;;;;;14.75;10.13;;;;;;;9.20;73.92;100629.91;5049355;28;20350;-78
2023/12/06 02:45:38;;;;;;;22.63;7.55;;;;;;;9.32;73.70;100636.19;5049676;28;20413;-78
2023/12/06 02:48:04;;;;;;;8.95;7.13;;;;;;;9.34;73.92;100652.16;5049797;28;20086;-78
2023/12/06 02:50:30;;;;;;;13.68;7.82;;;;;;;9.32;74.18;100649.63;5047257;28;20045;-78
2023/12/06 02:52:55;;;;;;;13.93;8.57;;;;;;;9.30;74.73;100644.34;5049987;28;20035;-78
2023/12/06 02:55:21;;;;;;;21.55;7.90;;;;;;;9.27;74.73;100643.72;5049290;28;20032;-78
2023/12/06 02:57:46;;;;;;;17.75;9.20;;;;;;;9.29;74.72;100644.47;5049557;28;20025;-78
2023/12/06 03:00:12;;;;;;;16.00;8.52;;;;;;;9.18;75.23;100639.06;5049338;28;20134;-77
2023/12/06 03:02:38;;;;;;;14.25;7.40;;;;;;;9.15;75.48;100626.72;5049630;28;20025;-77
2023/12/06 03:05:03;;;;;;;11.55;7.40;;;;;;;9.14;75.85;100645.63;5049191;28;20033;-77
2023/12/06 03:07:29;;;;;;;10.48;7.57;;;;;;;8.98;76.43;100634.34;5048338;28;20049;-78
2023/12/06 03:09:55;;;;;;;13.57;7.38;;;;;;;8.95;76.67;100615.78;5049684;28;20103;-78
2023/12/06 03:12:21;;;;;;;25.85;7.65;;;;;;;9.19;76.45;100635.41;5049444;28;20029;-77
2023/12/06 03:14:46;;;;;;;10.20;7.45;;;;;;;9.16;76.63;100636.50;5049087;28;20086;-77
2023/12/06 03:17:12;;;;;;;13.40;7.28;;;;;;;9.11;76.69;100617.19;5052923;28;20504;-77
2023/12/06 03:19:37;;;;;;;37.65;20.38;;;;;;;9.19;76.55;100622.00;5061287;28;20028;-79
2023/12/06 03:22:03;;;;;;;20.13;11.95;;;;;;;9.20;76.59;100618.34;5056156;28;20029;-79
2023/12/06 03:24:28;;;;;;;23.02;9.48;;;;;;;9.16;76.55;100606.97;5049342;28;20505;-78
2023/12/06 03:26:54;;;;;;;12.23;7.88;;;;;;;9.24;76.55;100617.97;5048821;28;20489;-77
2023/12/06 03:29:19;;;;;;;11.18;7.07;;;;;;;9.19;76.50;100612.13;5048880;28;20037;-78
2023/12/06 03:31:45;;;;;;;11.73;7.53;;;;;;;9.16;76.53;100612.34;5048991;28;20055;-78
2023/12/06 03:34:10;;;;;;;22.45;8.20;;;;;;;9.16;76.87;100612.34;5048799;28;20032;-78
2023/12/06 03:36:36;;;;;;;43.65;8.70;;;;;;;9.19;77.18;100614.81;5048989;28;20436;-77
2023/12/06 03:39:01;;;;;;;18.70;7.93;;;;;;;9.19;77.41;100606.75;5048574;28;20029;-78
2023/12/06 03:41:27;;;;;;;18.10;9.80;;;;;;;9.22;77.44;100611.03;5048676;28;20108;-77
2023/12/06 03:43:52;;;;;;;12.90;8.55;;;;;;;9.16;77.46;100595.38;5048490;28;20045;-78
2023/12/06 03:46:18;;;;;;;15.95;8.60;;;;;;;9.14;77.75;100591.97;5048502;28;20147;-77
2023/12/06 03:48:43;;;;;;;12.93;8.02;;;;;;;9.21;77.82;100598.56;5048355;28;20580;-77
2023/12/06 03:51:09;;;;;;;14.48;8.90;;;;;;;9.21;77.89;100601.25;5048533;28;20048;-77
2023/12/06 03:53:34;;;;;;;10.23;7.78;;;;;;;9.19;77.94;100601.38;5048671;28;20029;-78
2023/12/06 03:56:00;;;;;;;14.00;8.10;;;;;;;9.12;77.56;100589.41;5048490;28;20025;-78
2023/12/06 03:58:27;;;;;;;20.33;8.10;;;;;;;9.13;77.44;100587.56;5048509;28;20029;-77
2023/12/06 04:00:52;;;;;;;11.38;6.47;;;;;;;9.10;77.62;100594.03;5048051;28;20021;-78
2023/12/06 04:03:19;;;;;;;14.88;7.18;;;;;;;9.02;77.79;100583.00;5048797;28;20025;-78
2023/12/06 04:05:44;;;;;;;14.85;8.18;;;;;;;9.10;78.01;100596.72;5048206;28;20053;-76
2023/12/06 04:08:13;;;;;;;8.32;6.68;;;;;;;9.08;78.01;100595.13;5049649;28;20136;-78
2023/12/06 04:10:39;;;;;;;9.38;6.45;;;;;;;9.08;78.00;100592.44;5060148;28;20078;-79
2023/12/06 04:13:04;;;;;;;9.23;6.97;;;;;;;8.87;77.79;100557.34;5056126;28;20074;-78
2023/12/06 04:15:32;;;;;;;8.10;6.45;;;;;;;9.06;77.89;100578.28;5048231;28;20017;-77
2023/12/06 04:17:58;;;;;;;18.05;7.82;;;;;;;9.00;77.83;100573.38;5048196;28;20057;-77
2023/12/06 04:20:23;;;;;;;8.98;7.03;;;;;;;8.89;78.33;100559.94;5047886;28;20202;-78
2023/12/06 04:22:50;;;;;;;16.20;8.23;;;;;;;9.01;78.37;100564.38;5047408;28;20036;-77
2023/12/06 04:25:15;;;;;;;20.58;8.52;;;;;;;9.10;78.72;100574.41;5048112;28;20508;-77
2023/12/06 04:27:42;;;;;;;17.65;8.63;;;;;;;9.11;78.18;100566.22;5047883;28;20111;-78
2023/12/06 04:30:09;;;;;;;10.52;7.80;;;;;;;8.99;78.73;100571.69;5047982;28;20048;-78
2023/12/06 04:32:35;;;;;;;16.13;8.13;;;;;;;9.09;78.26;100586.09;5047921;28;20036;-78
2023/12/06 04:35:00;;;;;;;9.82;7.13;;;;;;;9.04;79.01;100573.03;5028773;28;20033;-78
2023/12/06 04:37:26;;;;;;;20.98;10.00;;;;;;;9.12;79.08;100583.16;5047938;28;20473;-79
2023/12/06 04:39:51;;;;;;;29.27;9.20;;;;;;;9.11;78.70;100576.94;5028636;28;20124;-78
2023/12/06 04:42:17;;;;;;;16.48;8.73;;;;;;;9.04;78.99;100580.22;5047454;28;20174;-77
2023/12/06 04:44:43;;;;;;;11.30;9.15;;;;;;;9.13;78.95;100584.88;5047251;28;20029;-79
2023/12/06 04:47:08;;;;;;;16.67;9.63;;;;;;;9.09;78.72;100578.03;5047740;28;20451;-78
2023/12/06 04:49:34;;;;;;;18.02;9.02;;;;;;;9.06;78.79;100586.31;5046087;28;20040;-78
2023/12/06 04:52:01;;;;;;;14.85;7.95;;;;;;;9.09;78.85;100578.03;5047847;28;20021;-78
2023/12/06 04:54:26;;;;;;;17.25;10.10;;;;;;;9.03;78.81;100576.69;5047686;28;20056;-78
2023/12/06 04:56:52;;;;;;;13.57;9.10;;;;;;;9.08;78.87;100579.03;5048039;28;20123;-78
2023/12/06 04:59:17;;;;;;;20.50;10.45;;;;;;;8.99;78.81;100583.25;5047957;28;20025;-79
2023/12/06 05:01:43;;;;;;;22.65;11.50;;;;;;;8.88;79.01;100560.88;5061145;28;20420;-79
2023/12/06 05:04:12;;;;;;;97.07;15.88;;;;;;;9.00;79.03;100573.38;5059004;28;20098;-78
2023/12/06 05:06:38;;;;;;;27.95;12.00;;;;;;;8.94;78.79;100573.84;5047472;28;20029;-77
2023/12/06 05:09:10;;;;;;;31.50;9.88;;;;;;;8.97;78.53;100578.97;5045049;28;20478;-77
2023/12/06 05:11:35;;;;;;;19.83;9.75;;;;;;;8.90;79.10;100572.38;5047084;28;20478;-77
2023/12/06 05:14:02;;;;;;;18.23;9.15;;;;;;;8.94;78.60;100580.06;5047516;28;20045;-77
2023/12/06 05:16:28;;;;;;;23.38;10.23;;;;;;;8.81;78.84;100573.06;5047057;28;20071;-78
2023/12/06 05:18:53;;;;;;;22.38;10.48;;;;;;;8.92;78.87;100583.84;5047171;28;20450;-77
2023/12/06 05:21:19;;;;;;;22.42;12.93;;;;;;;8.86;79.04;100581.63;5046882;28;20025;-77
2023/12/06 05:23:44;;;;;;;14.07;8.20;;;;;;;8.64;78.91;100548.38;5047424;28;20478;-78
2023/12/06 05:26:10;;;;;;;13.25;9.02;;;;;;;8.91;79.58;100584.78;5047322;28;20053;-77
2023/12/06 05:28:35;;;;;;;51.80;10.80;;;;;;;8.84;79.73;100589.75;5047520;28;20087;-77
2023/12/06 05:31:01;;;;;;;12.32;8.00;;;;;;;8.93;80.01;100582.88;5048195;28;20071;-76
2023/12/06 05:33:27;;;;;;;13.77;8.05;;;;;;;9.00;79.61;100578.72;5032360;28;20481;-78
2023/12/06 05:35:55;;;;;;;16.50;7.15;;;;;;;8.99;79.77;100588.59;5050794;28;20028;-79
2023/12/06 05:38:21;;;;;;;44.28;12.18;;;;;;;9.08;79.98;100589.75;5050476;28;20078;-78
2023/12/06 05:40:46;;;;;;;16.02;9.05;;;;;;;9.19;80.19;100590.66;5049123;28;20036;-78
2023/12/06 05:43:12;;;;;;;23.00;8.50;;;;;;;9.25;79.94;100594.69;5051320;28;20021;-78
2023/12/06 05:45:37;;;;;;;30.52;9.55;;;;;;;9.16;79.96;100579.28;5050855;28;20570;-79
2023/12/06 05:48:04;;;;;;;14.18;8.55;;;;;;;9.27;79.85;100582.00;5049767;28;20466;-80
2023/12/06 05:50:30;;;;;;;23.58;7.68;;;;;;;9.29;79.81;100588.94;5051291;28;20036;-79
2023/12/06 05:52:55;;;;;;;13.00;8.13;;;;;;;9.23;79.85;100586.75;5060404;28;20025;-78
2023/12/06 05:55:21;;;;;;;21.65;7.82;;;;;;;9.28;79.78;100600.69;5057839;28;20408;-78
2023/12/06 05:57:46;;;;;;;13.60;7.45;;;;;;;9.20;79.94;100586.97;5050692;28;20029;-78
2023/12/06 06:00:12;;;;;;;32.83;9.57;;;;;;;9.23;80.18;100576.00;5050408;28;20532;-77
2023/12/06 06:02:43;;;;;;;44.95;12.60;;;;;;;9.26;80.54;100570.41;5050571;28;20021;-76
2023/12/06 06:05:09;;;;;;;12.68;8.45;;;;;;;9.30;80.16;100587.13;5049851;28;20425;-78
2023/12/06 06:07:35;;;;;;;15.27;9.43;;;;;;;9.28;80.19;100583.72;5049805;28;20086;-78
2023/12/06 06:10:00;;;;;;;30.55;10.48;;;;;;;9.35;80.48;100584.97;5049401;28;20025;-78
2023/12/06 06:12:26;;;;;;;13.10;8.45;;;;;;;9.36;80.45;100580.47;5048677;28;20046;-78
2023/12/06 06:14:51;;;;;;;15.55;8.68;;;;;;;9.39;80.24;100581.06;5049584;28;20033;-76
2023/12/06 06:17:17;;;;;;;12.77;9.55;;;;;;;9.32;80.42;100553.00;5049878;28;20025;-75
2023/12/06 06:19:42;;;;;;;21.60;10.07;;;;;;;9.45;80.63;100569.00;5050145;28;20108;-76
2023/12/06 06:22:08;;;;;;;11.52;7.45;;;;;;;9.32;80.33;100542.25;5049607;28;20021;-75
2023/12/06 06:24:34;;;;;;;30.38;9.23;;;;;;;9.55;80.25;100576.22;5049819;28;20052;-75
2023/12/06 06:27:01;;;;;;;38.40;10.75;;;;;;;9.62;80.38;100560.47;5049752;28;20531;-77
2023/12/06 06:29:27;;;;;;;17.67;8.30;;;;;;;9.57;80.27;100558.16;5049927;28;20504;-77
2023/12/06 06:31:52;;;;;;;31.48;8.48;;;;;;;9.71;80.39;100563.31;5050122;28;20037;-77
2023/12/06 06:34:18;;;;;;;19.23;7.65;;;;;;;9.78;80.12;100561.81;5050093;28;20053;-77
2023/12/06 06:36:43;;;;;;;18.70;7.93;;;;;;;9.81;80.12;100561.59;5048640;28;20025;-77
2023/12/06 06:39:11;;;;;;;24.67;9.13;;;;;;;9.86;79.91;100558.53;5049730;28;20036;-76
2023/12/06 06:41:37;;;;;;;21.58;6.18;;;;;;;9.97;79.71;100557.69;5050152;28;20029;-76
2023/12/06 06:44:02;;;;;;;10.60;6.75;;;;;;;9.93;79.42;100534.75;5056696;28;20032;-76
2023/12/06 06:46:28;;;;;;;9.25;6.25;;;;;;;10.09;79.25;100548.66;5054348;28;20434;-76
2023/12/06 06:48:53;;;;;;;11.35;5.18;;;;;;;10.19;78.84;100555.00;5030469;28;20595;-77
2023/12/06 06:51:19;;;;;;;12.88;5.93;;;;;;;10.22;78.82;100550.25;5049388;28;20036;-75
2023/12/06 06:53:44;;;;;;;39.60;24.38;;;;;;;10.28;78.61;100546.19;5048121;28;20361;-76
2023/12/06 06:56:10;;;;;;;13.27;7.55;;;;;;;10.34;78.35;100548.38;5049293;28;20064;-76
2023/12/06 06:58:35;;;;;;;33.53;7.68;;;;;;;10.41;78.38;100528.09;5049433;28;20055;-78
2023/12/06 07:01:01;;;;;;;20.30;8.63;;;;;;;10.55;77.69;100541.25;5049310;28;20032;-76
2023/12/06 07:03:26;;;;;;;17.38;6.05;;;;;;;10.47;78.14;100532.97;5049060;28;20070;-78
2023/12/06 07:05:52;;;;;;;27.35;8.88;;;;;;;10.59;78.55;100529.25;5049176;28;20036;-76
2023/12/06 07:08:17;;;;;;;32.55;10.32;;;;;;;10.71;77.95;100536.31;5049148;28;20447;-76
2023/12/06 07:10:47;;;;;;;30.05;9.65;;;;;;;10.67;77.80;100513.31;5048922;28;20032;-77
2023/12/06 07:13:13;;;;;;;26.10;11.40;;;;;;;10.73;77.46;100534.34;5049265;28;20033;-78
2023/12/06 07:15:38;;;;;;;27.83;8.43;;;;;;;10.70;77.35;100536.44;5049066;28;20051;-77
2023/12/06 07:18:04;;;;;;;7.68;5.25;;;;;;;10.55;76.93;100511.66;5048906;28;20087;-76
2023/12/06 07:20:29;;;;;;;15.52;7.55;;;;;;;10.59;76.87;100523.88;5048869;28;20105;-78
2023/12/06 07:22:57;;;;;;;10.48;5.72;;;;;;;10.59;77.46;100525.72;5048784;28;20032;-78
2023/12/06 07:25:22;;;;;;;9.55;6.22;;;;;;;10.50;77.75;100516.56;5049041;28;20072;-76
2023/12/06 07:27:48;;;;;;;26.15;10.88;;;;;;;10.53;77.57;100534.28;5049183;28;20056;-75
2023/12/06 07:30:16;;;;;;;25.75;10.35;;;;;;;10.43;77.75;100526.13;5049252;28;20024;-77
2023/12/06 07:32:42;;;;;;;28.75;9.80;;;;;;;10.22;78.23;100490.25;5052795;28;20109;-78
2023/12/06 07:35:08;;;;;;;29.90;8.25;;;;;;;10.29;78.66;100518.34;5071346;28;20060;-78
2023/12/06 07:37:33;;;;;;;17.67;8.38;;;;;;;10.34;79.03;100527.75;5063425;28;20029;-77
2023/12/06 07:39:58;;;;;;;34.55;11.98;;;;;;;10.32;79.94;100507.34;5048485;28;20036;-78
2023/12/06 07:42:24;;;;;;;32.13;13.93;;;;;;;10.47;80.02;100521.34;5048699;28;20119;-78
2023/12/06 07:44:49;;;;;;;9.63;6.22;;;;;;;10.50;79.82;100500.44;5048218;28;20390;-78
2023/12/06 07:47:16;;;;;;;32.17;8.52;;;;;;;10.52;79.89;100514.59;5048318;28;20025;-76
2023/12/06 07:49:41;;;;;;;20.20;8.75;;;;;;;10.41;79.69;100485.09;5048147;28;20052;-77
2023/12/06 07:52:07;;;;;;;29.13;9.40;;;;;;;10.56;79.96;100510.69;5048219;28;20417;-77
2023/12/06 07:54:33;;;;;;;36.53;13.45;;;;;;;10.57;79.73;100504.34;5047555;28;20029;-77
2023/12/06 07:56:58;;;;;;;33.65;15.23;;;;;;;10.59;79.99;100514.97;5048253;28;20024;-77
2023/12/06 07:59:24;;;;;;;41.03;17.58;;;;;;;10.67;79.90;100512.50;5048173;28;20498;-77
2023/12/06 08:01:49;;;;;;;80.57;18.75;;;;;;;10.63;79.97;100506.53;5048036;28;20021;-77
2023/12/06 08:04:15;;;;;;;41.28;18.00;;;;;;;10.74;80.19;100509.16;5047934;28;20021;-77
2023/12/06 08:06:41;;;;;;;21.92;11.05;;;;;;;10.71;79.58;100504.03;5047644;28;20082;-77
2023/12/06 08:09:11;;;;;;;44.47;18.55;;;;;;;10.63;79.59;100511.03;5048150;28;20051;-77
2023/12/06 08:11:37;;;;;;;28.40;9.02;;;;;;;10.63;79.76;100517.28;5047749;28;20040;-77
2023/12/06 08:14:02;;;;;;;12.98;7.45;;;;;;;10.54;79.35;100512.66;5048145;28;20025;-77
2023/12/06 08:16:28;;;;;;;16.25;6.53;;;;;;;10.58;80.21;100522.16;5046684;28;20087;-77
2023/12/06 08:18:53;;;;;;;8.10;5.90;;;;;;;10.52;80.52;100493.09;5048526;28;20440;-77
2023/12/06 08:21:18;;;;;;;12.02;5.93;;;;;;;10.68;80.13;100512.34;5045937;28;20086;-77
2023/12/06 08:23:44;;;;;;;5.97;5.38;;;;;;;10.54;79.76;100488.47;5049737;28;20037;-77
2023/12/06 08:26:10;;;;;;;12.93;6.65;;;;;;;10.66;80.03;100495.50;5056412;28;20053;-76
2023/12/06 08:28:36;;;;;;;20.23;6.97;;;;;;;10.77;80.46;100503.50;5053516;28;20025;-78
2023/12/06 08:31:02;;;;;;;12.80;6.43;;;;;;;10.90;80.26;100514.09;5047705;28;20473;-77
2023/12/06 08:33:28;;;;;;;29.60;8.43;;;;;;;10.89;80.40;100507.84;5048095;28;20021;-76
2023/12/06 08:35:53;;;;;;;29.23;14.88;;;;;;;11.00;80.53;100503.41;5047672;28;20040;-77
2023/12/06 08:38:19;;;;;;;44.58;10.48;;;;;;;11.07;80.09;100507.31;5047847;28;20032;-77
2023/12/06 08:40:44;;;;;;;19.20;8.23;;;;;;;11.07;80.26;100493.84;5047747;28;20477;-77
2023/12/06 08:43:10;;;;;;;9.05;7.10;;;;;;;11.27;79.84;100498.34;5047620;28;20028;-76
2023/12/06 08:45:35;;;;;;;16.67;7.47;;;;;;;11.28;79.06;100492.00;5047527;28;20121;-78
2023/12/06 08:48:01;;;;;;;15.45;7.68;;;;;;;11.40;78.84;100501.69;5047618;28;20017;-76
2023/12/06 08:50:27;;;;;;;20.75;6.22;;;;;;;11.42;78.49;100495.19;5047498;28;20542;-76
2023/12/06 08:52:53;;;;;;;11.35;5.20;;;;;;;11.49;77.77;100495.50;5047531;28;20100;-77
2023/12/06 08:55:18;;;;;;;15.30;5.80;;;;;;;11.45;77.46;100473.38;5047200;28;20021;-77
2023/12/06 08:57:44;;;;;;;9.32;5.15;;;;;;;11.59;77.28;100480.22;5048023;28;20055;-77
2023/12/06 09:00:12;;;;;;;19.92;6.75;;;;;;;11.72;76.34;100494.38;5047104;28;20166;-77
2023/12/06 09:02:38;;;;;;;12.27;7.63;;;;;;;11.75;75.87;100490.53;5047634;28;20024;-77
2023/12/06 09:05:04;;;;;;;19.27;6.80;;;;;;;11.78;75.18;100485.75;5048709;28;20024;-76
2023/12/06 09:07:30;;;;;;;24.63;6.07;;;;;;;11.83;75.10;100483.47;5032319;28;20041;-77
2023/12/06 09:09:55;;;;;;;14.93;5.03;;;;;;;11.67;74.96;100461.56;5051695;28;20033;-76
2023/12/06 09:12:21;;;;;;;20.63;6.95;;;;;;;11.71;74.40;100473.78;5051233;28;20028;-77
2023/12/06 09:14:47;;;;;;;10.32;6.13;;;;;;;11.59;74.65;100464.06;5053396;28;20036;-79
2023/12/06 09:17:12;;;;;;;11.48;5.78;;;;;;;11.58;75.31;100481.25;5055692;28;20106;-77
2023/12/06 09:19:38;;;;;;;9.13;5.13;;;;;;;11.28;76.31;100441.66;5053997;28;20167;-77
2023/12/06 09:22:05;;;;;;;9.65;5.03;;;;;;;11.47;77.17;100467.84;5050563;28;20104;-76
2023/12/06 09:24:30;;;;;;;9.93;6.00;;;;;;;11.56;77.32;100464.34;5051016;28;20049;-76
2023/12/06 09:26:56;;;;;;;18.00;10.18;;;;;;;11.57;77.72;100455.28;5051429;28;20587;-77
2023/12/06 09:29:22;;;;;;;6.13;3.75;;;;;;;11.63;77.13;100457.44;5050890;28;20465;-75
2023/12/06 09:31:47;;;;;;;9.43;5.43;;;;;;;11.63;76.95;100459.28;5050796;28;20029;-77
2023/12/06 09:34:13;;;;;;;8.20;5.13;;;;;;;11.72;77.35;100459.34;5050425;28;20063;-76
2023/12/06 09:36:39;;;;;;;18.63;6.88;;;;;;;11.67;77.02;100431.94;5031693;28;20033;-79
2023/12/06 09:39:04;;;;;;;11.45;5.53;;;;;;;11.81;76.94;100442.34;5050756;28;20033;-77
2023/12/06 09:41:33;;;;;;;8.63;4.60;;;;;;;11.82;77.27;100454.84;5050851;28;20602;-77
2023/12/06 09:44:00;;;;;;;17.73;5.28;;;;;;;11.68;76.89;100422.03;5050473;28;20028;-78
2023/12/06 09:46:26;;;;;;;12.07;5.32;;;;;;;11.87;76.74;100447.19;5050809;28;20045;-77
2023/12/06 09:48:54;;;;;;;19.00;6.63;;;;;;;11.91;77.25;100432.47;5050650;28;20037;-76
2023/12/06 09:51:20;;;;;;;25.00;6.18;;;;;;;11.96;76.78;100440.13;5050318;28;20035;-78
2023/12/06 09:53:46;;;;;;;21.83;6.47;;;;;;;12.02;76.87;100438.75;5050600;28;20025;-76
2023/12/06 09:56:13;;;;;;;16.20;4.88;;;;;;;12.07;77.04;100431.09;5050134;28;20475;-77
2023/12/06 09:58:39;;;;;;;9.10;5.07;;;;;;;12.01;76.94;100400.16;5050842;28;20126;-76
2023/12/06 10:01:05;;;;;;;13.15;6.05;;;;;;;12.21;76.54;100434.22;5051054;28;20033;-77
2023/12/06 10:03:32;;;;;;;13.02;4.53;;;;;;;12.17;76.52;100418.47;5050453;28;20519;-76
2023/12/06 10:05:59;;;;;;;23.13;5.95;;;;;;;12.13;76.23;100403.56;5051586;28;20389;-77
2023/12/06 10:08:25;;;;;;;8.23;4.88;;;;;;;12.28;76.28;100413.81;5052631;28;20028;-78
2023/12/06 10:11:04;;;;;;;16.98;5.05;;;;;;;12.16;76.02;100382.56;5052116;28;20086;-76
2023/12/06 10:13:41;;;;;;;15.32;4.88;;;;;;;12.28;76.33;100403.00;5050317;28;20029;-77
2023/12/06 10:16:17;;;;;;;61.28;16.35;;;;;;;12.38;75.35;100408.41;5049798;28;20025;-76
2023/12/06 10:18:48;;;;;;;29.33;5.18;;;;;;;12.36;75.91;100394.19;5050146;28;20543;-76
2023/12/06 10:21:15;;;;;;;9.95;3.45;;;;;;;12.31;75.98;100391.09;5049744;28;20025;-77
2023/12/06 10:23:42;;;;;;;20.23;5.30;;;;;;;12.29;76.37;100385.00;5050188;28;20048;-77
2023/12/06 10:26:13;;;;;;;10.63;4.25;;;;;;;12.26;77.08;100377.19;5049608;28;20088;-76
2023/12/06 10:28:39;;;;;;;36.75;5.88;;;;;;;12.39;76.93;100393.91;5050252;28;20075;-79
2023/12/06 10:31:06;;;;;;;30.42;5.18;;;;;;;12.38;77.64;100376.88;5049918;28;20217;-77
2023/12/06 10:33:32;;;;;;;9.15;3.15;;;;;;;12.41;77.35;100354.19;5049709;28;20032;-76
2023/12/06 10:36:05;;;;;;;35.60;8.00;;;;;;;12.46;77.35;100384.28;5049654;28;20412;-76
2023/12/06 10:38:30;;;;;;;;;;;;;;;12.44;77.12;100386.28;5064463;28;20036;-77
2023/12/06 10:40:59;;;;;;;8.38;2.78;;;;;;;12.27;78.01;100373.47;5049287;28;20522;-76
2023/12/06 10:43:26;;;;;;;10.13;3.60;;;;;;;12.23;79.69;100377.47;5049657;28;20029;-78
2023/12/06 10:45:53;;;;;;;3.80;3.00;;;;;;;12.27;80.01;100384.25;5047822;28;20041;-76
2023/12/06 10:48:20;;;;;;;9.45;4.25;;;;;;;12.16;79.79;100365.53;5049219;28;20060;-76
2023/12/06 10:50:45;;;;;;;8.18;4.32;;;;;;;12.15;80.44;100363.81;5049377;28;20029;-77
2023/12/06 10:53:16;;;;;;;3.63;2.83;;;;;;;12.02;80.80;100374.06;5049665;28;20036;-76
2023/12/06 10:55:42;;;;;;;3.78;2.70;;;;;;;11.79;81.79;100358.13;5049626;28;20036;-76
2023/12/06 10:58:08;;;;;;;4.32;3.25;;;;;;;11.59;82.86;100367.09;5051139;28;20020;-76
2023/12/06 11:00:34;;;;;;;7.50;4.32;;;;;;;11.57;84.37;100368.25;5053898;28;20049;-77
2023/12/06 11:03:01;;;;;;;16.65;8.15;;;;;;;11.43;85.35;100356.03;5049787;28;20060;-78
2023/12/06 11:05:30;;;;;;;6.85;4.55;;;;;;;11.30;86.22;100333.88;5049117;28;20029;-77
2023/12/06 11:08:05;;;;;;;4.30;3.10;;;;;;;11.39;86.63;100354.59;5048890;28;20031;-78
2023/12/06 11:10:59;;;;;;;6.32;2.95;;;;;;;11.40;87.80;100356.28;5049487;28;20052;-77
2023/12/06 11:13:46;;;;;;;5.32;3.45;;;;;;;11.32;88.05;100351.56;5048740;28;20028;-76
2023/12/06 11:16:33;;;;;;;4.95;2.97;;;;;;;11.18;88.13;100351.09;5048884;28;20051;-78
2023/12/06 11:19:00;;;;;;;5.38;3.58;;;;;;;11.19;88.88;100352.81;5049329;28;20082;-77